sensor_id;sensor_type;location;lat;lon;timestamp;P1;durP1;ratioP1;P2;durP2;ratioP2
65039;SDS011;51606;45.000;38.612;2023-04-09T05:19:20;2.10;;;1.25;;
65039;SDS011;51606;45.000;38.612;2023-04-09T05:21:52;1.80;;;1.10;;
65039;SDS011;51606;45.000;38.612;2023-04-09T05:24:21;1.70;;;1.20;;
65039;SDS011;51606;45.000;38.612;2023-04-09T05:26:47;1.60;;;1.20;;
65039;SDS011;51606;45.000;38.612;2023-04-09T05:29:14;5.40;;;1.13;;
65039;SDS011;51606;45.000;38.612;2023-04-09T05:31:42;1.48;;;1.17;;
65039;SDS011;51606;45.000;38.612;2023-04-09T05:34:18;1.30;;;1.10;;
65039;SDS011;51606;45.000;38.612;2023-04-09T05:36:48;1.52;;;1.17;;
65039;SDS011;51606;45.000;38.612;2023-04-09T05:39:15;1.17;;;1.00;;
65039;SDS011;51606;45.000;38.612;2023-04-09T05:41:43;1.33;;;1.00;;
65039;SDS011;51606;45.000;38.612;2023-04-09T05:44:31;1.95;;;0.93;;
65039;SDS011;51606;45.000;38.612;2023-04-09T05:47:04;4.10;;;1.65;;
65039;SDS011;51606;45.000;38.612;2023-04-09T05:49:38;1.92;;;1.30;;
65039;SDS011;51606;45.000;38.612;2023-04-09T05:52:09;2.95;;;1.08;;
65039;SDS011;51606;45.000;38.612;2023-04-09T05:54:36;2.72;;;1.30;;
65039;SDS011;51606;45.000;38.612;2023-04-09T05:57:05;3.55;;;1.55;;
65039;SDS011;51606;45.000;38.612;2023-04-09T05:59:34;3.78;;;1.60;;
65039;SDS011;51606;45.000;38.612;2023-04-09T06:02:01;2.33;;;1.67;;
65039;SDS011;51606;45.000;38.612;2023-04-09T06:04:27;3.05;;;1.20;;
65039;SDS011;51606;45.000;38.612;2023-04-09T06:06:53;2.63;;;1.50;;
65039;SDS011;51606;45.000;38.612;2023-04-09T06:09:20;1.67;;;1.38;;
65039;SDS011;51606;45.000;38.612;2023-04-09T06:11:47;2.92;;;2.13;;
65039;SDS011;51606;45.000;38.612;2023-04-09T06:14:13;1.70;;;1.30;;
65039;SDS011;51606;45.000;38.612;2023-04-09T06:16:42;1.25;;;1.15;;
65039;SDS011;51606;45.000;38.612;2023-04-09T06:19:09;2.28;;;1.50;;
65039;SDS011;51606;45.000;38.612;2023-04-09T06:21:36;2.17;;;1.40;;
65039;SDS011;51606;45.000;38.612;2023-04-09T06:24:03;2.65;;;1.40;;
65039;SDS011;51606;45.000;38.612;2023-04-09T06:26:30;2.78;;;1.75;;
65039;SDS011;51606;45.000;38.612;2023-04-09T06:28:56;2.38;;;1.05;;
65039;SDS011;51606;45.000;38.612;2023-04-09T06:31:22;2.28;;;1.58;;
65039;SDS011;51606;45.000;38.612;2023-04-09T06:33:49;1.52;;;1.20;;
65039;SDS011;51606;45.000;38.612;2023-04-09T06:36:15;1.60;;;1.30;;
65039;SDS011;51606;45.000;38.612;2023-04-09T06:38:41;5.75;;;1.70;;
65039;SDS011;51606;45.000;38.612;2023-04-09T06:41:08;3.35;;;1.75;;
65039;SDS011;51606;45.000;38.612;2023-04-09T06:43:37;4.75;;;2.60;;
65039;SDS011;51606;45.000;38.612;2023-04-09T06:46:03;3.25;;;1.85;;
65039;SDS011;51606;45.000;38.612;2023-04-09T06:48:29;1.20;;;1.10;;
65039;SDS011;51606;45.000;38.612;2023-04-09T06:50:56;2.20;;;1.20;;
65039;SDS011;51606;45.000;38.612;2023-04-09T06:53:22;1.73;;;1.17;;
65039;SDS011;51606;45.000;38.612;2023-04-09T06:55:48;3.50;;;1.30;;
65039;SDS011;51606;45.000;38.612;2023-04-09T06:58:15;1.85;;;1.20;;
65039;SDS011;51606;45.000;38.612;2023-04-09T07:00:42;2.38;;;1.40;;
65039;SDS011;51606;45.000;38.612;2023-04-09T07:03:08;1.63;;;1.42;;
65039;SDS011;51606;45.000;38.612;2023-04-09T07:05:34;2.90;;;1.30;;
65039;SDS011;51606;45.000;38.612;2023-04-09T07:08:01;2.65;;;1.67;;
65039;SDS011;51606;45.000;38.612;2023-04-09T07:10:27;1.67;;;1.30;;
65039;SDS011;51606;45.000;38.612;2023-04-09T07:12:53;1.75;;;1.50;;
65039;SDS011;51606;45.000;38.612;2023-04-09T07:15:20;1.58;;;1.15;;
65039;SDS011;51606;45.000;38.612;2023-04-09T07:17:46;7.82;;;1.48;;
65039;SDS011;51606;45.000;38.612;2023-04-09T07:20:13;3.38;;;1.52;;
65039;SDS011;51606;45.000;38.612;2023-04-09T07:22:39;1.58;;;0.98;;
65039;SDS011;51606;45.000;38.612;2023-04-09T07:25:06;3.53;;;1.20;;
65039;SDS011;51606;45.000;38.612;2023-04-09T07:27:33;0.80;;;0.80;;
65039;SDS011;51606;45.000;38.612;2023-04-09T07:30:00;10.45;;;1.00;;
65039;SDS011;51606;45.000;38.612;2023-04-09T07:32:26;1.48;;;1.27;;
65039;SDS011;51606;45.000;38.612;2023-04-09T07:34:53;1.05;;;0.95;;
65039;SDS011;51606;45.000;38.612;2023-04-09T07:37:20;1.80;;;1.15;;
65039;SDS011;51606;45.000;38.612;2023-04-09T07:39:47;2.70;;;1.20;;
65039;SDS011;51606;45.000;38.612;2023-04-09T07:42:14;5.18;;;1.20;;
65039;SDS011;51606;45.000;38.612;2023-04-09T07:44:40;1.73;;;1.20;;
65039;SDS011;51606;45.000;38.612;2023-04-09T07:47:07;1.25;;;0.95;;
65039;SDS011;51606;45.000;38.612;2023-04-09T07:49:36;1.42;;;1.10;;
65039;SDS011;51606;45.000;38.612;2023-04-09T07:52:03;1.60;;;1.10;;
65039;SDS011;51606;45.000;38.612;2023-04-09T07:54:30;1.83;;;1.20;;
65039;SDS011;51606;45.000;38.612;2023-04-09T07:56:57;2.10;;;0.93;;
65039;SDS011;51606;45.000;38.612;2023-04-09T07:59:24;3.65;;;1.10;;
65039;SDS011;51606;45.000;38.612;2023-04-09T08:01:52;2.58;;;1.17;;
65039;SDS011;51606;45.000;38.612;2023-04-09T08:04:18;2.08;;;1.27;;
65039;SDS011;51606;45.000;38.612;2023-04-09T08:06:45;2.45;;;0.90;;
65039;SDS011;51606;45.000;38.612;2023-04-09T08:09:15;2.55;;;1.23;;
65039;SDS011;51606;45.000;38.612;2023-04-09T08:11:45;3.67;;;1.20;;
65039;SDS011;51606;45.000;38.612;2023-04-09T08:14:13;1.65;;;1.20;;
65039;SDS011;51606;45.000;38.612;2023-04-09T08:16:44;1.73;;;1.10;;
65039;SDS011;51606;45.000;38.612;2023-04-09T08:19:12;0.90;;;0.80;;
65039;SDS011;51606;45.000;38.612;2023-04-09T08:21:40;1.30;;;1.00;;
65039;SDS011;51606;45.000;38.612;2023-04-09T08:24:08;1.80;;;1.02;;
65039;SDS011;51606;45.000;38.612;2023-04-09T08:26:38;2.50;;;1.02;;
65039;SDS011;51606;45.000;38.612;2023-04-09T08:29:06;1.33;;;1.10;;
65039;SDS011;51606;45.000;38.612;2023-04-09T08:31:34;1.20;;;1.10;;
65039;SDS011;51606;45.000;38.612;2023-04-09T08:34:03;1.77;;;1.10;;
65039;SDS011;51606;45.000;38.612;2023-04-09T08:36:30;1.00;;;0.90;;
65039;SDS011;51606;45.000;38.612;2023-04-09T08:38:57;2.05;;;1.10;;
65039;SDS011;51606;45.000;38.612;2023-04-09T08:41:25;2.40;;;0.70;;
65039;SDS011;51606;45.000;38.612;2023-04-09T08:43:56;2.45;;;1.15;;
65039;SDS011;51606;45.000;38.612;2023-04-09T08:46:23;1.85;;;1.00;;
65039;SDS011;51606;45.000;38.612;2023-04-09T08:48:50;5.05;;;1.02;;
65039;SDS011;51606;45.000;38.612;2023-04-09T08:51:20;1.40;;;1.20;;
65039;SDS011;51606;45.000;38.612;2023-04-09T08:54:02;0.63;;;0.55;;
65039;SDS011;51606;45.000;38.612;2023-04-09T08:56:29;1.73;;;1.00;;
65039;SDS011;51606;45.000;38.612;2023-04-09T08:58:55;3.20;;;1.10;;
65039;SDS011;51606;45.000;38.612;2023-04-09T09:06:28;2.00;;;1.42;;
65039;SDS011;51606;45.000;38.612;2023-04-09T09:09:01;1.27;;;0.80;;
65039;SDS011;51606;45.000;38.612;2023-04-09T09:11:36;2.75;;;1.17;;
65039;SDS011;51606;45.000;38.612;2023-04-09T09:14:05;1.40;;;0.80;;
65039;SDS011;51606;45.000;38.612;2023-04-09T09:16:37;1.20;;;0.90;;
65039;SDS011;51606;45.000;38.612;2023-04-09T09:21:56;1.20;;;1.00;;
65039;SDS011;51606;45.000;38.612;2023-04-09T09:24:23;1.33;;;1.00;;
65039;SDS011;51606;45.000;38.612;2023-04-09T09:26:50;1.27;;;1.17;;
65039;SDS011;51606;45.000;38.612;2023-04-09T09:29:17;1.42;;;1.17;;
65039;SDS011;51606;45.000;38.612;2023-04-09T09:31:48;1.55;;;1.10;;
65039;SDS011;51606;45.000;38.612;2023-04-09T09:34:16;1.63;;;1.10;;
65039;SDS011;51606;45.000;38.612;2023-04-09T09:36:44;1.42;;;1.23;;
65039;SDS011;51606;45.000;38.612;2023-04-09T09:39:11;2.00;;;1.15;;
65039;SDS011;51606;45.000;38.612;2023-04-09T09:41:38;3.08;;;1.25;;
65039;SDS011;51606;45.000;38.612;2023-04-09T09:44:07;1.08;;;0.98;;
65039;SDS011;51606;45.000;38.612;2023-04-09T09:46:37;1.17;;;1.08;;
65039;SDS011;51606;45.000;38.612;2023-04-09T09:49:06;2.85;;;1.30;;
65039;SDS011;51606;45.000;38.612;2023-04-09T09:51:35;2.28;;;1.20;;
65039;SDS011;51606;45.000;38.612;2023-04-09T09:54:02;1.08;;;0.85;;
65039;SDS011;51606;45.000;38.612;2023-04-09T09:56:30;1.98;;;1.40;;
65039;SDS011;51606;45.000;38.612;2023-04-09T09:59:04;5.80;;;1.25;;
65039;SDS011;51606;45.000;38.612;2023-04-09T10:01:32;1.13;;;1.02;;
65039;SDS011;51606;45.000;38.612;2023-04-09T10:04:03;5.38;;;1.20;;
65039;SDS011;51606;45.000;38.612;2023-04-09T10:06:31;2.97;;;1.63;;
65039;SDS011;51606;45.000;38.612;2023-04-09T10:09:03;1.38;;;1.05;;
65039;SDS011;51606;45.000;38.612;2023-04-09T10:11:32;1.23;;;0.90;;
65039;SDS011;51606;45.000;38.612;2023-04-09T10:14:00;1.45;;;1.17;;
65039;SDS011;51606;45.000;38.612;2023-04-09T10:16:27;1.48;;;1.10;;
65039;SDS011;51606;45.000;38.612;2023-04-09T10:18:54;1.65;;;1.33;;
65039;SDS011;51606;45.000;38.612;2023-04-09T10:21:44;1.77;;;1.25;;
65039;SDS011;51606;45.000;38.612;2023-04-09T10:24:12;1.33;;;1.08;;
65039;SDS011;51606;45.000;38.612;2023-04-09T10:26:40;0.98;;;0.90;;
65039;SDS011;51606;45.000;38.612;2023-04-09T10:29:11;1.40;;;1.00;;
65039;SDS011;51606;45.000;38.612;2023-04-09T10:31:53;1.30;;;0.90;;
65039;SDS011;51606;45.000;38.612;2023-04-09T10:34:28;1.58;;;1.20;;
65039;SDS011;51606;45.000;38.612;2023-04-09T10:36:55;4.20;;;1.27;;
65039;SDS011;51606;45.000;38.612;2023-04-09T10:39:25;1.42;;;1.00;;
65039;SDS011;51606;45.000;38.612;2023-04-09T10:41:54;2.05;;;1.20;;
65039;SDS011;51606;45.000;38.612;2023-04-09T10:44:25;1.08;;;0.75;;
65039;SDS011;51606;45.000;38.612;2023-04-09T10:46:55;1.08;;;0.90;;
65039;SDS011;51606;45.000;38.612;2023-04-09T10:49:22;1.60;;;0.98;;
65039;SDS011;51606;45.000;38.612;2023-04-09T10:51:53;1.05;;;0.90;;
65039;SDS011;51606;45.000;38.612;2023-04-09T10:59:42;1.48;;;1.15;;
65039;SDS011;51606;45.000;38.612;2023-04-09T11:08:11;1.95;;;0.93;;
65039;SDS011;51606;45.000;38.612;2023-04-09T11:10:42;1.83;;;1.15;;
65039;SDS011;51606;45.000;38.612;2023-04-09T11:13:10;1.95;;;1.10;;
65039;SDS011;51606;45.000;38.612;2023-04-09T11:15:38;1.48;;;0.95;;
65039;SDS011;51606;45.000;38.612;2023-04-09T11:29:12;3.40;;;1.10;;
65039;SDS011;51606;45.000;38.612;2023-04-09T11:31:42;1.60;;;1.08;;
65039;SDS011;51606;45.000;38.612;2023-04-09T11:34:10;2.83;;;1.50;;
65039;SDS011;51606;45.000;38.612;2023-04-09T11:36:39;1.85;;;1.17;;
65039;SDS011;51606;45.000;38.612;2023-04-09T11:39:05;1.52;;;1.00;;
65039;SDS011;51606;45.000;38.612;2023-04-09T11:41:35;1.92;;;1.05;;
65039;SDS011;51606;45.000;38.612;2023-04-09T11:44:03;1.60;;;1.20;;
65039;SDS011;51606;45.000;38.612;2023-04-09T11:46:38;1.70;;;1.25;;
65039;SDS011;51606;45.000;38.612;2023-04-09T11:49:06;2.40;;;1.55;;
65039;SDS011;51606;45.000;38.612;2023-04-09T11:51:33;1.52;;;1.10;;
65039;SDS011;51606;45.000;38.612;2023-04-09T11:54:01;1.83;;;1.23;;
65039;SDS011;51606;45.000;38.612;2023-04-09T11:56:28;2.05;;;1.00;;
65039;SDS011;51606;45.000;38.612;2023-04-09T11:58:55;1.45;;;1.35;;
65039;SDS011;51606;45.000;38.612;2023-04-09T12:01:22;2.55;;;1.67;;
65039;SDS011;51606;45.000;38.612;2023-04-09T12:03:52;3.78;;;1.20;;
65039;SDS011;51606;45.000;38.612;2023-04-09T12:06:20;1.50;;;1.00;;
65039;SDS011;51606;45.000;38.612;2023-04-09T12:08:51;2.78;;;1.67;;
65039;SDS011;51606;45.000;38.612;2023-04-09T12:11:18;1.45;;;1.00;;
65039;SDS011;51606;45.000;38.612;2023-04-09T12:13:45;1.08;;;0.98;;
65039;SDS011;51606;45.000;38.612;2023-04-09T12:16:12;1.00;;;0.90;;
65039;SDS011;51606;45.000;38.612;2023-04-09T12:18:40;1.90;;;1.20;;
65039;SDS011;51606;45.000;38.612;2023-04-09T12:21:06;5.88;;;1.95;;
65039;SDS011;51606;45.000;38.612;2023-04-09T12:23:32;4.70;;;1.30;;
65039;SDS011;51606;45.000;38.612;2023-04-09T12:25:59;1.52;;;1.02;;
65039;SDS011;51606;45.000;38.612;2023-04-09T12:28:27;1.52;;;1.05;;
65039;SDS011;51606;45.000;38.612;2023-04-09T12:30:53;3.17;;;1.50;;
65039;SDS011;51606;45.000;38.612;2023-04-09T12:33:20;1.10;;;1.00;;
65039;SDS011;51606;45.000;38.612;2023-04-09T12:35:46;1.95;;;1.30;;
65039;SDS011;51606;45.000;38.612;2023-04-09T12:38:12;1.10;;;1.00;;
65039;SDS011;51606;45.000;38.612;2023-04-09T12:40:39;5.22;;;1.30;;
65039;SDS011;51606;45.000;38.612;2023-04-09T12:43:05;2.08;;;0.95;;
65039;SDS011;51606;45.000;38.612;2023-04-09T12:45:31;2.40;;;0.98;;
65039;SDS011;51606;45.000;38.612;2023-04-09T12:47:58;1.83;;;1.30;;
65039;SDS011;51606;45.000;38.612;2023-04-09T12:50:24;1.45;;;1.13;;
65039;SDS011;51606;45.000;38.612;2023-04-09T12:52:50;1.73;;;1.17;;
65039;SDS011;51606;45.000;38.612;2023-04-09T12:55:17;3.15;;;1.15;;
65039;SDS011;51606;45.000;38.612;2023-04-09T12:57:43;1.38;;;0.98;;
65039;SDS011;51606;45.000;38.612;2023-04-09T13:00:13;1.02;;;0.82;;
65039;SDS011;51606;45.000;38.612;2023-04-09T13:02:40;2.55;;;1.20;;
65039;SDS011;51606;45.000;38.612;2023-04-09T13:05:07;3.13;;;1.35;;
65039;SDS011;51606;45.000;38.612;2023-04-09T13:07:33;2.40;;;1.42;;
65039;SDS011;51606;45.000;38.612;2023-04-09T13:10:00;5.03;;;1.13;;
65039;SDS011;51606;45.000;38.612;2023-04-09T13:12:26;2.00;;;1.23;;
65039;SDS011;51606;45.000;38.612;2023-04-09T13:14:53;1.85;;;1.27;;
65039;SDS011;51606;45.000;38.612;2023-04-09T13:17:20;0.93;;;0.82;;
65039;SDS011;51606;45.000;38.612;2023-04-09T13:19:47;8.90;;;1.10;;
65039;SDS011;51606;45.000;38.612;2023-04-09T13:22:13;1.23;;;1.08;;
65039;SDS011;51606;45.000;38.612;2023-04-09T13:24:39;8.63;;;1.15;;
65039;SDS011;51606;45.000;38.612;2023-04-09T13:27:07;1.67;;;1.02;;
65039;SDS011;51606;45.000;38.612;2023-04-09T13:29:34;1.25;;;0.82;;
65039;SDS011;51606;45.000;38.612;2023-04-09T13:32:01;1.42;;;0.82;;
65039;SDS011;51606;45.000;38.612;2023-04-09T13:34:31;1.00;;;0.80;;
65039;SDS011;51606;45.000;38.612;2023-04-09T13:37:00;1.60;;;1.02;;
65039;SDS011;51606;45.000;38.612;2023-04-09T13:39:26;2.05;;;0.93;;
65039;SDS011;51606;45.000;38.612;2023-04-09T13:41:53;2.50;;;1.33;;
65039;SDS011;51606;45.000;38.612;2023-04-09T13:44:23;1.73;;;0.77;;
65039;SDS011;51606;45.000;38.612;2023-04-09T13:46:51;1.63;;;1.20;;
65039;SDS011;51606;45.000;38.612;2023-04-09T13:49:18;1.55;;;0.95;;
65039;SDS011;51606;45.000;38.612;2023-04-09T13:51:44;1.10;;;0.90;;
65039;SDS011;51606;45.000;38.612;2023-04-09T13:54:11;1.85;;;1.10;;
65039;SDS011;51606;45.000;38.612;2023-04-09T13:56:38;2.45;;;1.20;;
65039;SDS011;51606;45.000;38.612;2023-04-09T13:59:04;2.15;;;1.02;;
65039;SDS011;51606;45.000;38.612;2023-04-09T14:01:31;1.70;;;1.10;;
65039;SDS011;51606;45.000;38.612;2023-04-09T14:03:58;1.00;;;0.93;;
65039;SDS011;51606;45.000;38.612;2023-04-09T14:06:25;2.13;;;1.27;;
65039;SDS011;51606;45.000;38.612;2023-04-09T14:08:51;0.60;;;0.60;;
65039;SDS011;51606;45.000;38.612;2023-04-09T14:11:18;1.00;;;0.90;;
65039;SDS011;51606;45.000;38.612;2023-04-09T14:13:44;2.92;;;0.63;;
65039;SDS011;51606;45.000;38.612;2023-04-09T14:16:11;1.63;;;1.38;;
65039;SDS011;51606;45.000;38.612;2023-04-09T14:18:37;3.90;;;1.27;;
65039;SDS011;51606;45.000;38.612;2023-04-09T14:21:05;6.35;;;1.10;;
65039;SDS011;51606;45.000;38.612;2023-04-09T14:23:32;1.73;;;0.93;;
65039;SDS011;51606;45.000;38.612;2023-04-09T14:25:59;1.23;;;0.70;;
65039;SDS011;51606;45.000;38.612;2023-04-09T14:28:26;1.20;;;0.85;;
65039;SDS011;51606;45.000;38.612;2023-04-09T14:30:53;1.33;;;1.10;;
65039;SDS011;51606;45.000;38.612;2023-04-09T14:33:19;12.50;;;1.00;;
65039;SDS011;51606;45.000;38.612;2023-04-09T14:35:46;1.17;;;0.90;;
65039;SDS011;51606;45.000;38.612;2023-04-09T14:38:12;3.28;;;1.35;;
65039;SDS011;51606;45.000;38.612;2023-04-09T14:40:39;4.10;;;1.40;;
65039;SDS011;51606;45.000;38.612;2023-04-09T14:43:05;1.88;;;0.95;;
65039;SDS011;51606;45.000;38.612;2023-04-09T14:45:31;3.58;;;1.00;;
65039;SDS011;51606;45.000;38.612;2023-04-09T14:47:58;3.17;;;0.90;;
65039;SDS011;51606;45.000;38.612;2023-04-09T14:50:24;1.55;;;1.33;;
65039;SDS011;51606;45.000;38.612;2023-04-09T14:52:50;2.22;;;1.27;;
65039;SDS011;51606;45.000;38.612;2023-04-09T14:55:17;3.33;;;1.65;;
65039;SDS011;51606;45.000;38.612;2023-04-09T14:57:44;1.27;;;0.90;;
65039;SDS011;51606;45.000;38.612;2023-04-09T15:00:11;0.68;;;0.68;;
65039;SDS011;51606;45.000;38.612;2023-04-09T15:02:38;1.20;;;0.93;;
65039;SDS011;51606;45.000;38.612;2023-04-09T15:05:04;0.70;;;0.70;;
65039;SDS011;51606;45.000;38.612;2023-04-09T15:07:31;2.50;;;1.00;;
65039;SDS011;51606;45.000;38.612;2023-04-09T15:09:58;2.45;;;0.70;;
65039;SDS011;51606;45.000;38.612;2023-04-09T15:12:24;0.70;;;0.70;;
65039;SDS011;51606;45.000;38.612;2023-04-09T15:14:55;1.05;;;0.88;;
65039;SDS011;51606;45.000;38.612;2023-04-09T15:17:22;1.35;;;0.80;;
65039;SDS011;51606;45.000;38.612;2023-04-09T15:19:53;0.63;;;0.60;;
65039;SDS011;51606;45.000;38.612;2023-04-09T15:22:20;1.92;;;0.77;;
65039;SDS011;51606;45.000;38.612;2023-04-09T15:24:46;1.13;;;1.00;;
65039;SDS011;51606;45.000;38.612;2023-04-09T15:27:13;0.82;;;0.65;;
65039;SDS011;51606;45.000;38.612;2023-04-09T15:29:40;1.42;;;0.90;;
65039;SDS011;51606;45.000;38.612;2023-04-09T15:32:07;2.95;;;1.45;;
65039;SDS011;51606;45.000;38.612;2023-04-09T15:34:34;1.88;;;1.13;;
65039;SDS011;51606;45.000;38.612;2023-04-09T15:37:00;0.68;;;0.68;;
65039;SDS011;51606;45.000;38.612;2023-04-09T15:39:27;1.67;;;1.40;;
65039;SDS011;51606;45.000;38.612;2023-04-09T15:41:54;0.80;;;0.80;;
65039;SDS011;51606;45.000;38.612;2023-04-09T15:44:24;1.65;;;1.33;;
65039;SDS011;51606;45.000;38.612;2023-04-09T15:46:50;5.05;;;1.60;;
65039;SDS011;51606;45.000;38.612;2023-04-09T15:49:17;1.15;;;0.95;;
65039;SDS011;51606;45.000;38.612;2023-04-09T15:51:44;1.85;;;0.98;;
65039;SDS011;51606;45.000;38.612;2023-04-09T15:54:10;1.10;;;0.70;;
65039;SDS011;51606;45.000;38.612;2023-04-09T15:56:36;2.22;;;1.02;;
65039;SDS011;51606;45.000;38.612;2023-04-09T15:59:05;2.70;;;1.08;;
65039;SDS011;51606;45.000;38.612;2023-04-09T16:01:35;2.40;;;1.13;;
65039;SDS011;51606;45.000;38.612;2023-04-09T16:04:02;5.68;;;1.30;;
65039;SDS011;51606;45.000;38.612;2023-04-09T16:06:29;3.80;;;1.55;;
65039;SDS011;51606;45.000;38.612;2023-04-09T16:08:56;2.15;;;1.45;;
65039;SDS011;51606;45.000;38.612;2023-04-09T16:11:22;1.48;;;1.20;;
65039;SDS011;51606;45.000;38.612;2023-04-09T16:13:48;3.50;;;1.52;;
65039;SDS011;51606;45.000;38.612;2023-04-09T16:16:15;1.63;;;1.25;;
65039;SDS011;51606;45.000;38.612;2023-04-09T16:18:41;2.13;;;1.50;;
65039;SDS011;51606;45.000;38.612;2023-04-09T16:21:07;3.13;;;1.67;;
65039;SDS011;51606;45.000;38.612;2023-04-09T16:23:34;2.38;;;1.75;;
65039;SDS011;51606;45.000;38.612;2023-04-09T16:26:01;5.75;;;1.20;;
65039;SDS011;51606;45.000;38.612;2023-04-09T16:28:27;1.45;;;1.02;;
65039;SDS011;51606;45.000;38.612;2023-04-09T16:30:54;2.15;;;1.33;;
65039;SDS011;51606;45.000;38.612;2023-04-09T16:33:20;2.90;;;1.77;;
65039;SDS011;51606;45.000;38.612;2023-04-09T16:35:46;2.53;;;2.08;;
65039;SDS011;51606;45.000;38.612;2023-04-09T16:38:13;7.93;;;2.10;;
65039;SDS011;51606;45.000;38.612;2023-04-09T16:40:40;6.75;;;1.63;;
65039;SDS011;51606;45.000;38.612;2023-04-09T16:43:06;1.80;;;1.35;;
65039;SDS011;51606;45.000;38.612;2023-04-09T16:45:32;4.40;;;1.42;;
65039;SDS011;51606;45.000;38.612;2023-04-09T16:47:59;1.90;;;1.50;;
65039;SDS011;51606;45.000;38.612;2023-04-09T16:50:25;2.40;;;1.40;;
65039;SDS011;51606;45.000;38.612;2023-04-09T16:52:52;2.97;;;1.60;;
65039;SDS011;51606;45.000;38.612;2023-04-09T16:55:18;3.53;;;1.52;;
65039;SDS011;51606;45.000;38.612;2023-04-09T16:57:46;9.80;;;1.95;;
65039;SDS011;51606;45.000;38.612;2023-04-09T17:00:12;2.03;;;1.35;;
65039;SDS011;51606;45.000;38.612;2023-04-09T17:02:41;2.53;;;1.20;;
65039;SDS011;51606;45.000;38.612;2023-04-09T17:05:09;2.10;;;1.17;;
65039;SDS011;51606;45.000;38.612;2023-04-09T17:07:35;2.90;;;1.60;;
65039;SDS011;51606;45.000;38.612;2023-04-09T17:10:02;3.00;;;1.92;;
65039;SDS011;51606;45.000;38.612;2023-04-09T17:12:28;6.70;;;1.60;;
65039;SDS011;51606;45.000;38.612;2023-04-09T17:14:55;3.65;;;1.23;;
65039;SDS011;51606;45.000;38.612;2023-04-09T17:17:22;1.70;;;1.30;;
65039;SDS011;51606;45.000;38.612;2023-04-09T17:19:49;2.88;;;1.40;;
65039;SDS011;51606;45.000;38.612;2023-04-09T17:22:15;4.20;;;1.00;;
65039;SDS011;51606;45.000;38.612;2023-04-09T17:24:42;1.50;;;1.23;;
65039;SDS011;51606;45.000;38.612;2023-04-09T17:38:17;2.95;;;1.30;;
65039;SDS011;51606;45.000;38.612;2023-04-09T17:40:46;2.85;;;1.92;;
65039;SDS011;51606;45.000;38.612;2023-04-09T17:43:13;2.53;;;1.30;;
65039;SDS011;51606;45.000;38.612;2023-04-09T17:45:40;3.50;;;1.25;;
65039;SDS011;51606;45.000;38.612;2023-04-09T17:48:07;6.72;;;1.30;;
65039;SDS011;51606;45.000;38.612;2023-04-09T17:50:35;3.95;;;1.60;;
65039;SDS011;51606;45.000;38.612;2023-04-09T17:53:03;2.38;;;1.75;;
65039;SDS011;51606;45.000;38.612;2023-04-09T17:55:30;2.03;;;1.58;;
65039;SDS011;51606;45.000;38.612;2023-04-09T17:57:57;8.20;;;2.25;;
65039;SDS011;51606;45.000;38.612;2023-04-09T18:00:24;1.85;;;1.48;;
65039;SDS011;51606;45.000;38.612;2023-04-09T18:02:51;3.22;;;2.17;;
65039;SDS011;51606;45.000;38.612;2023-04-09T18:05:18;3.58;;;1.90;;
65039;SDS011;51606;45.000;38.612;2023-04-09T18:07:45;2.22;;;1.85;;
65039;SDS011;51606;45.000;38.612;2023-04-09T18:10:11;3.22;;;2.03;;
65039;SDS011;51606;45.000;38.612;2023-04-09T18:12:38;1.88;;;1.70;;
65039;SDS011;51606;45.000;38.612;2023-04-09T18:15:04;2.67;;;1.50;;
65039;SDS011;51606;45.000;38.612;2023-04-09T18:17:31;4.13;;;2.13;;
65039;SDS011;51606;45.000;38.612;2023-04-09T18:19:58;4.00;;;2.22;;
65039;SDS011;51606;45.000;38.612;2023-04-09T18:22:24;5.22;;;2.47;;
65039;SDS011;51606;45.000;38.612;2023-04-09T18:24:52;2.90;;;2.10;;
65039;SDS011;51606;45.000;38.612;2023-04-09T18:27:18;4.32;;;2.15;;
65039;SDS011;51606;45.000;38.612;2023-04-09T18:29:46;3.97;;;2.22;;
65039;SDS011;51606;45.000;38.612;2023-04-09T18:32:14;3.17;;;2.22;;
65039;SDS011;51606;45.000;38.612;2023-04-09T18:34:41;6.40;;;2.63;;
65039;SDS011;51606;45.000;38.612;2023-04-09T18:37:09;3.30;;;2.10;;
65039;SDS011;51606;45.000;38.612;2023-04-09T18:39:36;4.47;;;2.28;;
65039;SDS011;51606;45.000;38.612;2023-04-09T18:42:02;1.58;;;1.35;;
65039;SDS011;51606;45.000;38.612;2023-04-09T18:44:29;3.08;;;1.77;;
65039;SDS011;51606;45.000;38.612;2023-04-09T18:46:58;2.80;;;1.73;;
65039;SDS011;51606;45.000;38.612;2023-04-09T18:49:26;3.78;;;2.30;;
65039;SDS011;51606;45.000;38.612;2023-04-09T18:51:53;3.90;;;2.42;;
65039;SDS011;51606;45.000;38.612;2023-04-09T18:54:21;5.40;;;2.10;;
65039;SDS011;51606;45.000;38.612;2023-04-09T18:56:47;5.25;;;2.67;;
65039;SDS011;51606;45.000;38.612;2023-04-09T18:59:14;4.70;;;2.38;;
65039;SDS011;51606;45.000;38.612;2023-04-09T19:01:40;3.80;;;2.25;;
65039;SDS011;51606;45.000;38.612;2023-04-09T19:04:07;6.07;;;2.28;;
65039;SDS011;51606;45.000;38.612;2023-04-09T19:06:33;5.95;;;2.63;;
65039;SDS011;51606;45.000;38.612;2023-04-09T19:09:01;6.25;;;2.13;;
65039;SDS011;51606;45.000;38.612;2023-04-09T19:11:29;3.35;;;2.20;;
65039;SDS011;51606;45.000;38.612;2023-04-09T19:13:55;3.03;;;2.20;;
65039;SDS011;51606;45.000;38.612;2023-04-09T19:16:21;3.17;;;2.00;;
65039;SDS011;51606;45.000;38.612;2023-04-09T19:18:48;2.63;;;2.00;;
65039;SDS011;51606;45.000;38.612;2023-04-09T19:21:14;4.65;;;2.40;;
65039;SDS011;51606;45.000;38.612;2023-04-09T19:23:42;2.03;;;1.83;;
65039;SDS011;51606;45.000;38.612;2023-04-09T19:26:10;3.28;;;2.28;;
65039;SDS011;51606;45.000;38.612;2023-04-09T19:28:36;3.72;;;2.55;;
65039;SDS011;51606;45.000;38.612;2023-04-09T19:31:04;3.78;;;2.30;;
65039;SDS011;51606;45.000;38.612;2023-04-09T19:33:31;2.65;;;1.65;;
65039;SDS011;51606;45.000;38.612;2023-04-09T19:35:57;3.55;;;2.50;;
65039;SDS011;51606;45.000;38.612;2023-04-09T19:38:24;3.97;;;3.00;;
65039;SDS011;51606;45.000;38.612;2023-04-09T19:40:50;2.92;;;1.67;;
65039;SDS011;51606;45.000;38.612;2023-04-09T19:43:17;5.00;;;2.83;;
